createdAt,value
2018-12-23T00:00:36.692Z,5.6
2018-12-23T00:01:38.812Z,5.6
2018-12-23T00:02:40.954Z,5.6
2018-12-23T00:03:43.123Z,5.6
2018-12-23T00:04:45.265Z,5.6
2018-12-23T00:05:47.384Z,5.6
2018-12-23T00:06:49.518Z,5.6
2018-12-23T00:07:52.535Z,5.6
2018-12-23T00:08:55.057Z,5.7
2018-12-23T00:09:57.182Z,5.7
2018-12-23T00:10:59.459Z,5.7
2018-12-23T00:12:01.601Z,5.7
2018-12-23T00:13:04.148Z,5.7
2018-12-23T00:14:06.295Z,5.7
2018-12-23T00:15:08.366Z,5.7
2018-12-23T00:16:10.408Z,5.7
2018-12-23T00:17:12.722Z,5.7
2018-12-23T00:18:14.777Z,5.7
2018-12-23T00:19:16.805Z,5.7
2018-12-23T00:20:18.851Z,5.7
2018-12-23T00:21:20.910Z,5.7
2018-12-23T00:22:22.967Z,5.7
2018-12-23T00:23:25.044Z,5.7
2018-12-23T00:24:27.113Z,5.7
2018-12-23T00:25:29.160Z,5.7
2018-12-23T00:26:31.224Z,5.7
2018-12-23T00:27:33.280Z,5.7
2018-12-23T00:28:35.335Z,5.7
2018-12-23T00:29:37.377Z,5.7
2018-12-23T00:30:39.440Z,5.7
2018-12-23T00:31:41.578Z,5.8
2018-12-23T00:32:43.654Z,5.8
2018-12-23T00:33:46.006Z,5.8
2018-12-23T00:34:48.063Z,5.8
2018-12-23T00:35:50.128Z,5.8
2018-12-23T00:36:52.195Z,5.8
2018-12-23T00:37:54.246Z,5.8
2018-12-23T00:38:56.582Z,5.8
2018-12-23T00:39:58.625Z,5.8
2018-12-23T00:41:00.671Z,5.8
2018-12-23T00:42:02.713Z,5.8
2018-12-23T00:43:04.772Z,5.8
2018-12-23T00:44:06.804Z,5.8
2018-12-23T00:45:08.851Z,5.8
2018-12-23T00:46:10.958Z,5.8
2018-12-23T00:47:13.164Z,5.8
2018-12-23T00:48:15.216Z,5.8
2018-12-23T00:49:17.274Z,5.8
2018-12-23T00:50:19.323Z,5.8
2018-12-23T00:51:21.387Z,5.8
2018-12-23T00:52:23.425Z,5.8
2018-12-23T00:53:25.470Z,5.8
2018-12-23T00:54:27.548Z,5.8
2018-12-23T00:55:29.590Z,5.8
2018-12-23T00:56:31.668Z,5.8
2018-12-23T00:57:33.739Z,5.8
2018-12-23T00:58:35.900Z,5.8
2018-12-23T00:59:38.348Z,5.8
2018-12-23T01:00:40.407Z,5.8
2018-12-23T01:01:42.469Z,5.8
2018-12-23T01:02:44.511Z,5.8
2018-12-23T01:03:46.599Z,5.8
2018-12-23T01:04:48.916Z,5.8
2018-12-23T01:05:50.975Z,5.8
2018-12-23T01:06:53.042Z,5.8
2018-12-23T01:07:55.101Z,5.8
2018-12-23T01:08:57.174Z,5.9
2018-12-23T01:09:59.204Z,5.8
2018-12-23T01:11:01.553Z,5.8
2018-12-23T01:12:03.624Z,5.8
2018-12-23T01:13:06.062Z,5.8
2018-12-23T01:14:08.501Z,5.8
2018-12-23T01:15:10.618Z,5.8
2018-12-23T01:16:12.788Z,5.8
2018-12-23T01:17:14.831Z,5.8
2018-12-23T01:18:16.905Z,5.8
2018-12-23T01:19:18.952Z,5.8
2018-12-23T01:20:21.360Z,5.8
2018-12-23T01:21:23.408Z,5.8
2018-12-23T01:22:25.832Z,5.8
2018-12-23T01:23:27.898Z,5.8
2018-12-23T01:24:29.948Z,5.8
2018-12-23T01:25:32.121Z,5.8
2018-12-23T01:26:34.165Z,5.8
2018-12-23T01:27:36.210Z,5.8
2018-12-23T01:28:38.528Z,5.8
2018-12-23T01:29:40.579Z,5.8
2018-12-23T01:30:42.632Z,5.8
2018-12-23T01:31:44.754Z,5.8
2018-12-23T01:32:46.804Z,5.8
2018-12-23T01:33:48.838Z,5.8
2018-12-23T01:34:50.878Z,5.8
2018-12-23T01:35:53.329Z,5.8
2018-12-23T01:36:55.664Z,5.8
2018-12-23T01:37:57.694Z,5.8
2018-12-23T01:38:59.867Z,5.8
2018-12-23T01:40:02.194Z,5.8
2018-12-23T01:41:05.575Z,5.8
2018-12-23T01:42:07.606Z,5.8
2018-12-23T01:43:09.962Z,5.8
2018-12-23T01:44:12.011Z,5.8
2018-12-23T01:45:14.058Z,5.8
2018-12-23T01:46:16.396Z,5.8
2018-12-23T01:47:18.440Z,5.8
2018-12-23T01:48:20.516Z,5.8
2018-12-23T01:49:22.557Z,5.8
2018-12-23T01:50:24.603Z,5.9
2018-12-23T01:51:26.706Z,5.8
2018-12-23T01:52:29.037Z,5.8
2018-12-23T01:53:31.099Z,5.9
2018-12-23T01:54:33.148Z,5.9
2018-12-23T01:55:35.587Z,5.9
2018-12-23T01:56:37.935Z,5.9
2018-12-23T01:57:40.049Z,5.9
2018-12-23T01:58:42.100Z,5.9
2018-12-23T01:59:44.148Z,5.9
2018-12-23T02:00:46.197Z,5.9
2018-12-23T02:01:48.243Z,5.9
2018-12-23T02:02:50.313Z,5.9
2018-12-23T02:03:52.650Z,5.9
2018-12-23T02:04:54.789Z,5.9
2018-12-23T02:05:56.814Z,5.9
2018-12-23T02:06:58.867Z,5.9
2018-12-23T02:08:00.926Z,5.9
2018-12-23T02:09:03.006Z,5.9
2018-12-23T02:10:05.047Z,5.9
2018-12-23T02:11:07.111Z,5.9
2018-12-23T02:12:09.151Z,5.9
2018-12-23T02:13:11.219Z,5.9
2018-12-23T02:14:13.259Z,5.9
2018-12-23T02:15:15.302Z,5.9
2018-12-23T02:16:17.655Z,5.9
2018-12-23T02:17:20.002Z,5.9
2018-12-23T02:18:22.101Z,5.9
2018-12-23T02:19:24.162Z,5.9
2018-12-23T02:20:26.222Z,5.9
2018-12-23T02:21:28.280Z,6
2018-12-23T02:22:30.339Z,6
2018-12-23T02:23:32.378Z,6
2018-12-23T02:24:34.440Z,6
2018-12-23T02:25:36.520Z,6
2018-12-23T02:26:38.565Z,6
2018-12-23T02:27:40.610Z,6
2018-12-23T02:28:42.675Z,6
2018-12-23T02:29:44.740Z,6
2018-12-23T02:30:46.801Z,6
2018-12-23T02:31:48.851Z,6
2018-12-23T02:32:51.015Z,6
2018-12-23T02:33:53.067Z,6
2018-12-23T02:34:55.110Z,6
2018-12-23T02:35:57.181Z,6
2018-12-23T02:36:59.262Z,6
2018-12-23T02:38:01.423Z,6
2018-12-23T02:39:03.596Z,6
2018-12-23T02:40:05.656Z,6
2018-12-23T02:41:08.411Z,6
2018-12-23T02:42:10.497Z,6
2018-12-23T02:43:12.835Z,6
2018-12-23T02:44:14.890Z,6
2018-12-23T02:45:16.989Z,6
2018-12-23T02:46:19.035Z,6
2018-12-23T02:47:21.166Z,6
2018-12-23T02:48:23.224Z,6
2018-12-23T02:49:25.611Z,6
2018-12-23T02:50:27.788Z,6
2018-12-23T02:51:29.841Z,6
2018-12-23T02:52:31.893Z,6
2018-12-23T02:53:33.933Z,6
2018-12-23T02:54:35.979Z,6
2018-12-23T02:55:38.322Z,6
2018-12-23T02:56:40.379Z,6
2018-12-23T02:57:42.451Z,6
2018-12-23T02:58:44.488Z,6
2018-12-23T02:59:46.797Z,6
2018-12-23T03:00:49.133Z,6.1
2018-12-23T03:01:51.189Z,6
2018-12-23T03:02:53.563Z,6
2018-12-23T03:03:55.644Z,6
2018-12-23T03:04:57.706Z,6
2018-12-23T03:06:07.393Z,6
2018-12-23T03:07:09.851Z,6.1
2018-12-23T03:08:11.912Z,6.1
2018-12-23T03:09:13.965Z,6.1
2018-12-23T03:10:16.020Z,6.1
2018-12-23T03:11:18.407Z,6.1
2018-12-23T03:12:20.763Z,6.1
2018-12-23T03:13:23.104Z,6.1
2018-12-23T03:14:25.617Z,6.1
2018-12-23T03:15:27.993Z,6.1
2018-12-23T03:16:30.050Z,6.1
2018-12-23T03:17:32.491Z,6.1
2018-12-23T03:18:34.948Z,6.1
2018-12-23T03:19:37.035Z,6.1
2018-12-23T03:20:39.079Z,6.1
2018-12-23T03:21:41.428Z,6.1
2018-12-23T03:22:43.756Z,6.1
2018-12-23T03:23:46.097Z,6.1
2018-12-23T03:24:48.293Z,6.1
2018-12-23T03:25:50.350Z,6.1
2018-12-23T03:26:52.455Z,6.1
2018-12-23T03:27:54.502Z,6.2
2018-12-23T03:28:56.588Z,6.1
2018-12-23T03:29:58.720Z,6.2
2018-12-23T03:31:01.565Z,6.2
2018-12-23T03:32:03.985Z,6.2
2018-12-23T03:33:06.835Z,6.2
2018-12-23T03:34:09.278Z,6.2
2018-12-23T03:35:11.329Z,6.2
2018-12-23T03:36:16.760Z,6.2
2018-12-23T03:37:18.809Z,6.2
2018-12-23T03:38:21.440Z,6.2
2018-12-23T03:39:23.511Z,6.2
2018-12-23T03:40:25.560Z,6.2
2018-12-23T03:41:27.713Z,6.2
2018-12-23T03:42:29.757Z,6.2
2018-12-23T03:43:31.800Z,6.2
2018-12-23T03:44:33.925Z,6.2
2018-12-23T03:45:35.975Z,6.2
2018-12-23T03:46:38.026Z,6.2
2018-12-23T03:47:40.442Z,6.2
2018-12-23T03:48:42.527Z,6.2
2018-12-23T03:49:44.612Z,6.2
2018-12-23T03:50:46.678Z,6.3
2018-12-23T03:51:48.723Z,6.3
2018-12-23T03:52:51.078Z,6.3
2018-12-23T03:53:53.401Z,6.3
2018-12-23T03:54:55.458Z,6.3
2018-12-23T03:55:57.893Z,6.3
2018-12-23T03:57:00.327Z,6.3
2018-12-23T03:58:02.655Z,6.3
2018-12-23T03:59:04.715Z,6.3
2018-12-23T04:00:07.150Z,6.3
2018-12-23T04:01:09.510Z,6.3
2018-12-23T04:02:11.948Z,6.3
2018-12-23T04:03:14.303Z,6.3
2018-12-23T04:04:16.345Z,6.3
2018-12-23T04:05:19.044Z,6.4
2018-12-23T04:06:26.015Z,6.3
2018-12-23T04:07:28.065Z,6.3
2018-12-23T04:08:30.393Z,6.4
2018-12-23T04:09:32.434Z,6.3
2018-12-23T04:10:34.472Z,6.4
2018-12-23T04:11:36.535Z,6.4
2018-12-23T04:12:39.066Z,6.3
2018-12-23T04:13:41.109Z,6.4
2018-12-23T04:14:43.459Z,6.3
2018-12-23T04:15:45.506Z,6.3
2018-12-23T04:16:47.563Z,6.3
2018-12-23T04:17:49.631Z,6.3
2018-12-23T04:18:51.964Z,6.4
2018-12-23T04:19:54.323Z,6.4
2018-12-23T04:20:56.378Z,6.4
2018-12-23T04:21:58.431Z,6.4
2018-12-23T04:23:00.472Z,6.4
2018-12-23T04:24:03.101Z,6.3
2018-12-23T04:25:05.449Z,6.4
2018-12-23T04:26:07.520Z,6.4
2018-12-23T04:27:09.582Z,6.4
2018-12-23T04:28:11.629Z,6.4
2018-12-23T04:29:13.730Z,6.4
2018-12-23T04:30:15.835Z,6.4
2018-12-23T04:31:17.888Z,6.4
2018-12-23T04:32:20.221Z,6.4
2018-12-23T04:33:23.028Z,6.4
2018-12-23T04:34:25.125Z,6.4
2018-12-23T04:35:27.270Z,6.4
2018-12-23T04:36:35.769Z,6.4
2018-12-23T04:37:37.825Z,6.4
2018-12-23T04:38:40.455Z,6.4
2018-12-23T04:39:42.506Z,6.4
2018-12-23T04:40:44.572Z,6.4
2018-12-23T04:41:46.661Z,6.4
2018-12-23T04:42:48.718Z,6.4
2018-12-23T04:43:51.048Z,6.4
2018-12-23T04:44:53.089Z,6.4
2018-12-23T04:45:55.135Z,6.4
2018-12-23T04:46:57.790Z,6.4
2018-12-23T04:47:59.836Z,6.4
2018-12-23T04:49:01.874Z,6.4
2018-12-23T04:50:04.252Z,6.4
2018-12-23T04:51:06.329Z,6.4
2018-12-23T04:52:08.958Z,6.5
2018-12-23T04:53:11.008Z,6.5
2018-12-23T04:54:13.335Z,6.4
2018-12-23T04:55:15.786Z,6.4
2018-12-23T04:56:17.855Z,6.5
2018-12-23T04:57:20.221Z,6.5
2018-12-23T04:58:22.715Z,6.5
2018-12-23T04:59:25.042Z,6.5
2018-12-23T05:00:27.082Z,6.5
2018-12-23T05:01:29.418Z,6.5
2018-12-23T05:02:31.597Z,6.5
2018-12-23T05:03:44.421Z,6.5
2018-12-23T05:04:46.752Z,6.5
2018-12-23T05:05:48.805Z,6.5
2018-12-23T05:06:50.848Z,6.5
2018-12-23T05:07:53.020Z,6.5
2018-12-23T05:08:55.080Z,6.5
2018-12-23T05:09:57.111Z,6.5
2018-12-23T05:10:59.175Z,6.5
2018-12-23T05:12:01.233Z,6.6
2018-12-23T05:13:03.580Z,6.6
2018-12-23T05:14:05.638Z,6.6
2018-12-23T05:15:07.982Z,6.6
2018-12-23T05:16:10.305Z,6.6
2018-12-23T05:17:12.352Z,6.6
2018-12-23T05:18:14.383Z,6.6
2018-12-23T05:19:16.412Z,6.6
2018-12-23T05:20:18.444Z,6.6
2018-12-23T05:21:20.498Z,6.6
2018-12-23T05:22:22.545Z,6.6
2018-12-23T05:23:24.582Z,6.6
2018-12-23T05:24:26.922Z,6.6
2018-12-23T05:25:28.966Z,6.6
2018-12-23T05:26:31.001Z,6.6
2018-12-23T05:27:33.046Z,6.6
2018-12-23T05:28:35.083Z,6.6
2018-12-23T05:29:37.206Z,6.6
2018-12-23T05:30:39.274Z,6.6
2018-12-23T05:31:41.325Z,6.6
2018-12-23T05:32:43.389Z,6.6
2018-12-23T05:33:45.724Z,6.6
2018-12-23T05:34:48.066Z,6.7
2018-12-23T05:35:50.410Z,6.7
2018-12-23T05:36:53.797Z,6.7
2018-12-23T05:37:56.235Z,6.6
2018-12-23T05:38:58.560Z,6.6
2018-12-23T05:40:00.784Z,6.7
2018-12-23T05:41:02.852Z,6.7
2018-12-23T05:42:04.918Z,6.7
2018-12-23T05:43:07.262Z,6.7
2018-12-23T05:44:09.333Z,6.7
2018-12-23T05:45:11.692Z,6.7
2018-12-23T05:46:13.769Z,6.7
2018-12-23T05:47:15.823Z,6.7
2018-12-23T05:48:17.887Z,6.7
2018-12-23T05:49:20.196Z,6.7
2018-12-23T05:50:22.253Z,6.7
2018-12-23T05:51:24.308Z,6.7
2018-12-23T05:52:26.342Z,6.7
2018-12-23T05:53:28.383Z,6.7
2018-12-23T05:54:30.715Z,6.7
2018-12-23T05:55:32.767Z,6.7
2018-12-23T05:56:34.853Z,6.7
2018-12-23T05:57:36.912Z,6.7
2018-12-23T05:58:38.946Z,6.7
2018-12-23T05:59:40.995Z,6.7
2018-12-23T06:00:43.034Z,6.7
2018-12-23T06:01:45.063Z,6.7
2018-12-23T06:02:47.109Z,6.7
2018-12-23T06:03:49.181Z,6.7
2018-12-23T06:04:51.215Z,6.6
2018-12-23T06:05:53.248Z,6.7
2018-12-23T06:07:02.129Z,6.7
2018-12-23T06:08:04.182Z,6.7
2018-12-23T06:09:06.812Z,6.7
2018-12-23T06:10:08.879Z,6.6
2018-12-23T06:11:10.925Z,6.6
2018-12-23T06:12:12.977Z,6.6
2018-12-23T06:13:15.035Z,6.7
2018-12-23T06:14:17.185Z,6.7
2018-12-23T06:15:19.234Z,6.7
2018-12-23T06:16:21.310Z,6.7
2018-12-23T06:17:23.769Z,6.7
2018-12-23T06:18:26.101Z,6.7
2018-12-23T06:19:28.444Z,6.7
2018-12-23T06:20:30.787Z,6.7
2018-12-23T06:21:33.150Z,6.7
2018-12-23T06:22:35.494Z,6.7
2018-12-23T06:23:37.828Z,6.7
2018-12-23T06:24:39.855Z,6.7
2018-12-23T06:25:41.917Z,6.7
2018-12-23T06:26:43.962Z,6.7
2018-12-23T06:27:46.002Z,6.7
2018-12-23T06:28:48.042Z,6.7
2018-12-23T06:29:50.110Z,6.7
2018-12-23T06:30:52.157Z,6.7
2018-12-23T06:31:54.246Z,6.7
2018-12-23T06:32:56.345Z,6.7
2018-12-23T06:33:58.675Z,6.7
2018-12-23T06:35:00.768Z,6.7
2018-12-23T06:36:03.210Z,6.7
2018-12-23T06:37:11.344Z,6.7
2018-12-23T06:38:13.669Z,6.7
2018-12-23T06:39:15.730Z,6.7
2018-12-23T06:40:17.771Z,6.7
2018-12-23T06:41:19.816Z,6.7
2018-12-23T06:42:21.873Z,6.7
2018-12-23T06:43:23.908Z,6.7
2018-12-23T06:44:26.352Z,6.7
2018-12-23T06:45:28.380Z,6.7
2018-12-23T06:46:30.432Z,6.7
2018-12-23T06:47:32.487Z,6.7
2018-12-23T06:48:36.683Z,6.7
2018-12-23T06:49:38.724Z,6.7
2018-12-23T06:50:40.781Z,6.7
2018-12-23T06:51:43.389Z,6.7
2018-12-23T06:52:45.442Z,6.7
2018-12-23T06:53:47.493Z,6.7
2018-12-23T06:54:51.654Z,6.8
2018-12-23T06:55:53.706Z,6.8
2018-12-23T06:56:55.750Z,6.8
2018-12-23T06:57:57.792Z,6.8
2018-12-23T06:58:59.845Z,6.8
2018-12-23T07:00:01.906Z,6.7
2018-12-23T07:01:03.984Z,6.8
2018-12-23T07:02:06.057Z,6.7
2018-12-23T07:03:08.395Z,6.8
2018-12-23T07:04:10.437Z,6.8
2018-12-23T07:05:12.592Z,6.8
2018-12-23T07:06:14.636Z,6.8
2018-12-23T07:07:20.616Z,6.8
2018-12-23T07:08:22.651Z,6.8
2018-12-23T07:09:24.699Z,6.8
2018-12-23T07:10:26.772Z,6.8
2018-12-23T07:11:28.816Z,6.8
2018-12-23T07:12:30.895Z,6.8
2018-12-23T07:13:33.002Z,6.8
2018-12-23T07:14:35.060Z,6.8
2018-12-23T07:15:37.393Z,6.8
2018-12-23T07:16:39.435Z,6.8
2018-12-23T07:17:41.485Z,6.9
2018-12-23T07:18:43.829Z,6.8
2018-12-23T07:19:45.932Z,6.8
2018-12-23T07:20:47.983Z,6.8
2018-12-23T07:21:50.028Z,6.8
2018-12-23T07:22:52.077Z,6.8
2018-12-23T07:23:54.132Z,6.8
2018-12-23T07:24:56.455Z,6.8
2018-12-23T07:25:58.545Z,6.8
2018-12-23T07:27:00.607Z,6.8
2018-12-23T07:28:02.661Z,6.8
2018-12-23T07:29:04.712Z,6.8
2018-12-23T07:30:07.137Z,6.8
2018-12-23T07:31:09.577Z,6.8
2018-12-23T07:32:11.628Z,6.8
2018-12-23T07:33:13.687Z,6.8
2018-12-23T07:34:16.014Z,6.8
2018-12-23T07:35:18.055Z,6.8
2018-12-23T07:36:20.104Z,6.8
2018-12-23T07:37:28.844Z,6.8
2018-12-23T07:38:30.872Z,6.7
2018-12-23T07:39:32.929Z,6.7
2018-12-23T07:40:35.647Z,6.8
2018-12-23T07:41:37.702Z,6.8
2018-12-23T07:42:39.736Z,6.8
2018-12-23T07:43:41.787Z,6.7
2018-12-23T07:44:43.854Z,6.7
2018-12-23T07:45:45.905Z,6.7
2018-12-23T07:46:48.235Z,6.7
2018-12-23T07:47:50.281Z,6.7
2018-12-23T07:48:52.341Z,6.7
2018-12-23T07:49:54.764Z,6.7
2018-12-23T07:50:56.815Z,6.7
2018-12-23T07:51:59.144Z,6.6
2018-12-23T07:53:01.173Z,6.7
2018-12-23T07:54:03.226Z,6.6
2018-12-23T07:55:05.279Z,6.6
2018-12-23T07:56:07.343Z,6.6
2018-12-23T07:57:09.393Z,6.6
2018-12-23T07:58:11.468Z,6.6
2018-12-23T07:59:13.531Z,6.6
2018-12-23T08:00:15.562Z,6.6
2018-12-23T08:01:17.910Z,6.6
2018-12-23T08:02:19.956Z,6.6
2018-12-23T08:03:22.001Z,6.6
2018-12-23T08:04:24.505Z,6.5
2018-12-23T08:05:26.548Z,6.5
2018-12-23T08:06:28.586Z,6.5
2018-12-23T08:07:37.356Z,6.5
2018-12-23T08:08:39.768Z,6.5
2018-12-23T08:09:41.816Z,6.4
2018-12-23T08:10:43.875Z,6.4
2018-12-23T08:11:45.924Z,6.4
2018-12-23T08:12:48.049Z,6.4
2018-12-23T08:13:50.483Z,6.4
2018-12-23T08:14:52.541Z,6.4
2018-12-23T08:15:54.589Z,6.4
2018-12-23T08:16:56.654Z,6.5
2018-12-23T08:17:58.970Z,6.5
2018-12-23T08:19:01.401Z,6.5
2018-12-23T08:20:03.464Z,6.5
2018-12-23T08:21:05.503Z,6.5
2018-12-23T08:22:08.176Z,6.4
2018-12-23T08:23:10.235Z,6.5
2018-12-23T08:24:12.287Z,6.5
2018-12-23T08:25:14.352Z,6.5
2018-12-23T08:26:16.413Z,6.5
2018-12-23T08:27:18.469Z,6.5
2018-12-23T08:28:20.516Z,6.5
2018-12-23T08:29:22.974Z,6.5
2018-12-23T08:30:25.033Z,6.5
2018-12-23T08:31:27.395Z,6.5
2018-12-23T08:32:29.771Z,6.5
2018-12-23T08:33:31.857Z,6.5
2018-12-23T08:34:33.921Z,6.5
2018-12-23T08:35:36.292Z,6.5
2018-12-23T08:36:38.350Z,6.5
2018-12-23T08:37:45.776Z,6.5
2018-12-23T08:38:47.926Z,6.5
2018-12-23T08:39:50.266Z,6.5
2018-12-23T08:40:52.314Z,6.5
2018-12-23T08:41:54.383Z,6.5
2018-12-23T08:42:56.473Z,6.5
2018-12-23T08:43:58.528Z,6.5
2018-12-23T08:45:00.604Z,6.5
2018-12-23T08:46:02.942Z,6.6
2018-12-23T08:47:05.302Z,6.6
2018-12-23T08:48:07.626Z,6.6
2018-12-23T08:49:09.976Z,6.6
2018-12-23T08:50:12.351Z,6.6
2018-12-23T08:51:14.414Z,6.6
2018-12-23T08:52:16.479Z,6.6
2018-12-23T08:53:18.915Z,6.6
2018-12-23T08:54:21.249Z,6.6
2018-12-23T08:55:23.287Z,6.6
2018-12-23T08:56:25.617Z,6.6
2018-12-23T08:57:27.699Z,6.7
2018-12-23T08:58:29.762Z,6.7
2018-12-23T08:59:31.819Z,6.7
2018-12-23T09:00:33.875Z,6.7
2018-12-23T09:01:35.949Z,6.7
2018-12-23T09:02:38.000Z,6.7
2018-12-23T09:03:40.038Z,6.7
2018-12-23T09:04:42.488Z,6.7
2018-12-23T09:05:44.534Z,6.7
2018-12-23T09:06:46.626Z,6.7
2018-12-23T09:07:54.196Z,6.7
2018-12-23T09:08:56.526Z,6.8
2018-12-23T09:09:58.581Z,6.8
2018-12-23T09:11:00.641Z,6.8
2018-12-23T09:12:02.692Z,6.8
2018-12-23T09:13:04.750Z,6.7
2018-12-23T09:14:06.787Z,6.7
2018-12-23T09:15:09.112Z,6.7
2018-12-23T09:16:11.167Z,6.7
2018-12-23T09:17:13.215Z,6.7
2018-12-23T09:18:20.872Z,6.7
2018-12-23T09:19:22.927Z,6.7
2018-12-23T09:20:24.960Z,6.7
2018-12-23T09:21:26.991Z,6.7
2018-12-23T09:22:29.039Z,6.7
2018-12-23T09:23:31.081Z,6.7
2018-12-23T09:24:33.416Z,6.7
2018-12-23T09:25:35.571Z,6.7
2018-12-23T09:26:37.612Z,6.7
2018-12-23T09:27:39.656Z,6.7
2018-12-23T09:28:41.702Z,6.7
2018-12-23T09:29:43.756Z,6.7
2018-12-23T09:30:45.810Z,6.7
2018-12-23T09:31:48.139Z,6.7
2018-12-23T09:32:50.493Z,6.8
2018-12-23T09:33:52.548Z,6.8
2018-12-23T09:34:54.584Z,6.7
2018-12-23T09:35:56.906Z,6.8
2018-12-23T09:36:58.964Z,6.7
2018-12-23T09:38:03.161Z,6.8
2018-12-23T09:39:05.508Z,6.8
2018-12-23T09:40:08.216Z,6.7
2018-12-23T09:41:10.262Z,6.8
2018-12-23T09:42:12.317Z,6.8
2018-12-23T09:43:15.952Z,6.8
2018-12-23T09:44:18.007Z,6.8
2018-12-23T09:45:20.411Z,6.8
2018-12-23T09:46:22.458Z,6.8
2018-12-23T09:47:24.533Z,7
2018-12-23T09:48:26.572Z,6.9
2018-12-23T09:49:28.899Z,7
2018-12-23T09:50:31.236Z,7.1
2018-12-23T09:51:33.264Z,7.1
2018-12-23T09:52:35.307Z,7
2018-12-23T09:53:37.345Z,7
2018-12-23T09:54:39.676Z,7
2018-12-23T09:55:41.827Z,7
2018-12-23T09:56:43.877Z,7
2018-12-23T09:57:45.937Z,7
2018-12-23T09:58:47.964Z,7
2018-12-23T09:59:49.993Z,7
2018-12-23T10:00:52.031Z,7.1
2018-12-23T10:01:54.071Z,7.1
2018-12-23T10:02:56.125Z,7.1
2018-12-23T10:03:58.183Z,7.1
2018-12-23T10:05:00.243Z,7.1
2018-12-23T10:06:02.345Z,7.1
2018-12-23T10:07:04.718Z,7.1
2018-12-23T10:08:11.406Z,7.1
2018-12-23T10:09:13.576Z,7.1
2018-12-23T10:10:15.649Z,7.1
2018-12-23T10:11:17.738Z,7.1
2018-12-23T10:12:19.880Z,7.1
2018-12-23T10:13:21.997Z,7.1
2018-12-23T10:14:24.437Z,7.1
2018-12-23T10:15:26.590Z,7.1
2018-12-23T10:16:28.719Z,7.1
2018-12-23T10:17:30.908Z,7.1
2018-12-23T10:18:32.987Z,7.1
2018-12-23T10:19:35.168Z,7.1
2018-12-23T10:20:37.298Z,7.1
2018-12-23T10:21:39.402Z,7.1
2018-12-23T10:22:42.094Z,7.1
2018-12-23T10:23:44.525Z,7.1
2018-12-23T10:24:47.002Z,7.1
2018-12-23T10:25:49.414Z,7.1
2018-12-23T10:26:51.622Z,7.1
2018-12-23T10:27:54.090Z,7.1
2018-12-23T10:28:56.551Z,7.1
2018-12-23T10:29:59.144Z,7.1
2018-12-23T10:31:01.645Z,7.1
2018-12-23T10:32:04.207Z,7.1
2018-12-23T10:33:06.927Z,7.2
2018-12-23T10:34:09.637Z,7.2
2018-12-23T10:35:12.293Z,7.1
2018-12-23T10:36:14.952Z,7.1
2018-12-23T10:37:17.842Z,7.1
2018-12-23T10:38:20.393Z,7.1
2018-12-23T10:39:22.900Z,7.1
2018-12-23T10:40:25.613Z,7.1
2018-12-23T10:41:28.262Z,7.1
2018-12-23T10:42:30.523Z,7.1
2018-12-23T10:43:33.187Z,7.1
2018-12-23T10:44:35.888Z,7.1
2018-12-23T10:45:38.278Z,7.1
2018-12-23T10:46:41.355Z,7.1
2018-12-23T10:47:43.961Z,7.1
2018-12-23T10:48:46.725Z,7.1
2018-12-23T10:49:49.474Z,7.1
2018-12-23T10:50:52.170Z,7.1
2018-12-23T10:51:54.800Z,7.1
2018-12-23T10:52:58.196Z,7
2018-12-23T10:54:01.055Z,7
2018-12-23T10:55:04.306Z,7
2018-12-23T10:56:07.022Z,7
2018-12-23T10:57:09.857Z,7
2018-12-23T10:58:12.729Z,7
2018-12-23T10:59:15.678Z,7.1
2018-12-23T11:00:18.330Z,7.1
2018-12-23T11:01:21.035Z,7.1
2018-12-23T11:02:24.122Z,7.1
2018-12-23T11:03:27.036Z,7
2018-12-23T11:04:29.706Z,7.1
2018-12-23T11:05:32.052Z,7.1
2018-12-23T11:06:34.102Z,7.1
2018-12-23T11:07:36.160Z,7.1
2018-12-23T11:08:38.205Z,7.1
2018-12-23T11:09:40.269Z,7.1
2018-12-23T11:10:42.348Z,7.1
2018-12-23T11:11:44.672Z,7.1
2018-12-23T11:12:46.741Z,7.1
2018-12-23T11:13:48.779Z,7.1
2018-12-23T11:14:50.834Z,7.1
2018-12-23T11:15:52.885Z,7.1
2018-12-23T11:16:55.019Z,7.2
2018-12-23T11:17:57.067Z,7.2
2018-12-23T11:18:59.122Z,7.2
2018-12-23T11:20:01.183Z,7.2
2018-12-23T11:21:03.223Z,7.2
2018-12-23T11:22:05.347Z,7.2
2018-12-23T11:23:07.421Z,7.2
2018-12-23T11:24:10.047Z,7.2
2018-12-23T11:25:12.073Z,7.2
2018-12-23T11:26:14.423Z,7.2
2018-12-23T11:27:16.458Z,7.2
2018-12-23T11:28:18.510Z,7.2
2018-12-23T11:29:20.828Z,7.2
2018-12-23T11:30:23.153Z,7.2
2018-12-23T11:31:25.193Z,7.2
2018-12-23T11:32:27.226Z,7.2
2018-12-23T11:33:29.377Z,7.3
2018-12-23T11:34:31.436Z,7.2
2018-12-23T11:35:33.774Z,7.3
2018-12-23T11:36:36.103Z,7.3
2018-12-23T11:37:38.244Z,7.3
2018-12-23T11:38:40.679Z,7.3
2018-12-23T11:39:42.751Z,7.3
2018-12-23T11:40:44.798Z,7.3
2018-12-23T11:41:46.847Z,7.3
2018-12-23T11:42:48.900Z,7.3
2018-12-23T11:43:50.956Z,7.3
2018-12-23T11:44:53.003Z,7.3
2018-12-23T11:45:55.072Z,7.3
2018-12-23T11:46:57.134Z,7.3
2018-12-23T11:47:59.189Z,7.4
2018-12-23T11:49:01.232Z,7.3
2018-12-23T11:50:03.573Z,7.3
2018-12-23T11:51:07.850Z,7.4
2018-12-23T11:52:09.896Z,7.4
2018-12-23T11:53:11.943Z,7.3
2018-12-23T11:54:13.988Z,7.3
2018-12-23T11:55:16.042Z,7.3
2018-12-23T11:56:18.135Z,7.3
2018-12-23T11:57:20.567Z,7.3
2018-12-23T11:58:22.716Z,7.3
2018-12-23T11:59:24.756Z,7.4
2018-12-23T12:00:26.801Z,7.3
2018-12-23T12:01:28.859Z,7.3
2018-12-23T12:02:30.911Z,7.3
2018-12-23T12:03:32.973Z,7.3
2018-12-23T12:04:35.024Z,7.3
2018-12-23T12:05:37.576Z,7.3
2018-12-23T12:06:40.011Z,7.3
2018-12-23T12:07:42.046Z,7.3
2018-12-23T12:08:44.975Z,7.3
2018-12-23T12:09:47.313Z,7.3
2018-12-23T12:10:49.363Z,7.3
2018-12-23T12:11:52.115Z,7.3
2018-12-23T12:12:54.171Z,7.3
2018-12-23T12:13:56.228Z,7.3
2018-12-23T12:14:58.274Z,7.2
2018-12-23T12:16:00.320Z,7.3
2018-12-23T12:17:02.351Z,7.3
2018-12-23T12:18:04.408Z,7.3
2018-12-23T12:19:06.473Z,7.3
2018-12-23T12:20:08.551Z,7.2
2018-12-23T12:21:10.614Z,7.2
2018-12-23T12:22:12.640Z,7.2
2018-12-23T12:23:14.729Z,7.1
2018-12-23T12:24:16.783Z,7.1
2018-12-23T12:25:18.834Z,7.1
2018-12-23T12:26:20.895Z,7
2018-12-23T12:27:22.959Z,7.1
2018-12-23T12:28:24.980Z,7.1
2018-12-23T12:29:27.044Z,7
2018-12-23T12:30:29.067Z,6.9
2018-12-23T12:31:31.112Z,6.9
2018-12-23T12:32:33.446Z,6.9
2018-12-23T12:33:35.879Z,6.9
2018-12-23T12:34:37.908Z,6.9
2018-12-23T12:35:39.945Z,6.9
2018-12-23T12:36:41.993Z,6.9
2018-12-23T12:37:44.319Z,6.9
2018-12-23T12:38:53.366Z,6.9
2018-12-23T12:39:55.527Z,6.9
2018-12-23T12:40:57.578Z,6.9
2018-12-23T12:41:59.907Z,6.9
2018-12-23T12:43:02.612Z,6.9
2018-12-23T12:44:04.663Z,6.9
2018-12-23T12:45:06.996Z,6.9
2018-12-23T12:46:09.036Z,6.9
2018-12-23T12:47:11.138Z,6.9
2018-12-23T12:48:13.181Z,6.8
2018-12-23T12:49:15.220Z,6.8
2018-12-23T12:50:17.559Z,6.9
2018-12-23T12:51:19.619Z,6.9
2018-12-23T12:52:21.663Z,6.9
2018-12-23T12:53:23.712Z,6.9
2018-12-23T12:54:25.826Z,6.9
2018-12-23T12:55:27.852Z,6.9
2018-12-23T12:56:29.900Z,6.9
2018-12-23T12:57:31.948Z,6.9
2018-12-23T12:58:34.670Z,6.9
2018-12-23T12:59:36.726Z,6.9
2018-12-23T13:00:39.046Z,6.9
2018-12-23T13:01:41.095Z,6.9
2018-12-23T13:02:43.138Z,6.9
2018-12-23T13:03:45.180Z,6.9
2018-12-23T13:04:47.217Z,6.9
2018-12-23T13:05:49.260Z,6.9
2018-12-23T13:06:51.322Z,6.9
2018-12-23T13:07:53.361Z,6.9
2018-12-23T13:09:01.747Z,6.9
2018-12-23T13:10:03.794Z,6.9
2018-12-23T13:11:05.920Z,6.9
2018-12-23T13:12:07.988Z,6.9
2018-12-23T13:13:10.030Z,6.9
2018-12-23T13:14:12.081Z,6.9
2018-12-23T13:15:14.137Z,6.9
2018-12-23T13:16:16.174Z,6.9
2018-12-23T13:17:18.216Z,6.9
2018-12-23T13:18:20.554Z,6.9
2018-12-23T13:19:22.599Z,6.9
2018-12-23T13:20:24.668Z,6.9
2018-12-23T13:21:26.734Z,7
2018-12-23T13:22:28.766Z,7
2018-12-23T13:23:30.826Z,7
2018-12-23T13:24:32.859Z,7
2018-12-23T13:25:35.201Z,6.9
2018-12-23T13:26:37.262Z,7
2018-12-23T13:27:39.319Z,7
2018-12-23T13:28:41.372Z,7
2018-12-23T13:29:43.425Z,7
2018-12-23T13:30:45.494Z,7
2018-12-23T13:31:47.543Z,7
2018-12-23T13:32:49.890Z,7
2018-12-23T13:33:51.932Z,7
2018-12-23T13:34:53.973Z,7
2018-12-23T13:35:56.027Z,7
2018-12-23T13:36:58.068Z,7
2018-12-23T13:38:00.123Z,7
2018-12-23T13:39:10.591Z,7
2018-12-23T13:40:12.649Z,7
2018-12-23T13:41:14.698Z,7.1
2018-12-23T13:42:16.733Z,7
2018-12-23T13:43:18.787Z,7
2018-12-23T13:44:20.821Z,7
2018-12-23T13:45:22.843Z,7
2018-12-23T13:46:24.889Z,7
2018-12-23T13:47:26.939Z,7
2018-12-23T13:48:28.982Z,7
2018-12-23T13:49:31.034Z,7
2018-12-23T13:50:33.059Z,7
2018-12-23T13:51:35.099Z,7
2018-12-23T13:52:37.177Z,7
2018-12-23T13:53:39.242Z,6.9
2018-12-23T13:54:41.307Z,7
2018-12-23T13:55:43.353Z,7
2018-12-23T13:56:45.405Z,7
2018-12-23T13:57:47.475Z,7
2018-12-23T13:58:49.626Z,7
2018-12-23T13:59:51.667Z,7
2018-12-23T14:00:54.306Z,7
2018-12-23T14:01:56.490Z,7
2018-12-23T14:02:58.537Z,6.9
2018-12-23T14:04:01.083Z,7
2018-12-23T14:05:03.729Z,6.9
2018-12-23T14:06:10.471Z,6.9
2018-12-23T14:07:13.222Z,6.9
2018-12-23T14:08:15.286Z,6.9
2018-12-23T14:09:18.474Z,6.9
2018-12-23T14:10:20.527Z,6.9
2018-12-23T14:11:22.568Z,6.9
2018-12-23T14:12:24.619Z,6.9
2018-12-23T14:13:26.660Z,6.9
2018-12-23T14:14:28.691Z,6.9
2018-12-23T14:15:30.781Z,6.9
2018-12-23T14:16:32.845Z,6.9
2018-12-23T14:17:35.181Z,6.8
2018-12-23T14:18:37.515Z,6.8
2018-12-23T14:19:39.576Z,6.9
2018-12-23T14:20:41.642Z,6.9
2018-12-23T14:21:43.976Z,6.9
2018-12-23T14:22:46.056Z,6.8
2018-12-23T14:23:48.105Z,6.8
2018-12-23T14:24:50.170Z,6.8